This is the latest recevied weather packets stored in our database for station/object SV9TNF-2. If no packets are shown the sender has not sent any weather packets the latest 10 day(s).
| Time | Temp. | Humidity | Pressure | Rain* | Wind** | Luminosity | Snow |
|---|---|---|---|---|---|---|---|
| 1777475068 | 22.78° C | 59% | 1022.4 hPa | 0 mm | 3.58 m/s, 90° | - | - |
| 1777474768 | 23.33° C | 58% | 1022.4 hPa | 0 mm | 1.79 m/s, 77° | - | - |
| 1777474468 | 23.33° C | 57% | 1022.4 hPa | 0 mm | 1.34 m/s, 72° | - | - |
| 1777474168 | 22.78° C | 60% | 1022.4 hPa | 0 mm | 0.89 m/s, 84° | - | - |
| 1777473868 | 23.33° C | 57% | 1022.4 hPa | 0 mm | 0.45 m/s, 58° | - | - |
| 1777473567 | 22.78° C | 58% | 1022.4 hPa | 0 mm | 0.45 m/s, 79° | - | - |
| 1777473268 | 22.78° C | 59% | 1022.4 hPa | 0 mm | 1.79 m/s, 93° | - | - |
| 1777472968 | 22.22° C | 61% | 1022.4 hPa | 0 mm | 1.79 m/s, 80° | - | - |
| 1777472668 | 23.33° C | 58% | 1022.7 hPa | 0 mm | 2.68 m/s, 68° | - | - |
| 1777472367 | 23.33° C | 59% | 1022.7 hPa | 0 mm | 1.79 m/s, 111° | - | - |
| 1777472067 | 22.78° C | 59% | 1022.7 hPa | 0 mm | 1.34 m/s, 85° | - | - |
| 1777471767 | 23.33° C | 58% | 1022.7 hPa | 0 mm | 1.34 m/s, 84° | - | - |
| 1777471467 | 23.33° C | 55% | 1022.7 hPa | 0 mm | 2.24 m/s, 102° | - | - |
| 1777471167 | 23.89° C | 55% | 1022.7 hPa | 0 mm | 0.89 m/s, 250° | - | - |
| 1777470867 | 23.89° C | 54% | 1022.7 hPa | 0 mm | 0.45 m/s, 270° | - | - |
| 1777470567 | 22.78° C | 59% | 1022.7 hPa | 0 mm | 5.36 m/s, 58° | - | - |
| 1777470266 | 23.33° C | 56% | 1022.7 hPa | 0 mm | 2.24 m/s, 0° | - | - |
| 1777469967 | 22.78° C | 58% | 1022.7 hPa | 0 mm | 3.58 m/s, 29° | - | - |
| 1777469666 | 23.33° C | 52% | 1022.7 hPa | 0 mm | 2.68 m/s, 0° | - | - |
| 1777469366 | 22.78° C | 56% | 1022.7 hPa | 0 mm | 1.79 m/s, 187° | - | - |
| 1777469066 | 23.33° C | 55% | 1022.7 hPa | 0 mm | 1.79 m/s, 280° | - | - |
| 1777468766 | 22.78° C | 57% | 1022.7 hPa | 0 mm | 2.68 m/s, 92° | - | - |
| 1777468466 | 22.22° C | 57% | 1022.7 hPa | 0 mm | 4.02 m/s, 284° | - | - |
| 1777468166 | 22.22° C | 52% | 1022.7 hPa | 0 mm | 8.05 m/s, 42° | - | - |
| 1777467866 | 22.78° C | 51% | 1022.7 hPa | 0 mm | 6.26 m/s, 243° | - | - |
* Rain latest hour (hover to see other rain measurements)
** Current wind speed in m/s (hover to see current wind gust speed)